createdAt,value
2023-04-16T00:02:22.524Z,158535.25
2023-04-16T00:04:50.321Z,158539.25
2023-04-16T00:07:17.449Z,158532.59
2023-04-16T00:09:45.091Z,158532.59
2023-04-16T00:12:12.421Z,158525.94
2023-04-16T00:14:40.152Z,158531.28
2023-04-16T00:17:07.522Z,158524.63
2023-04-16T00:19:35.779Z,158519.28
2023-04-16T00:22:02.891Z,158525.94
2023-04-16T00:24:30.569Z,158513.94
2023-04-16T00:26:58.227Z,158509.97
2023-04-16T00:29:28.764Z,158505.94
2023-04-16T00:31:56.134Z,158505.94
2023-04-16T00:34:24.738Z,158496.66
2023-04-16T00:36:52.217Z,158479.31
2023-04-16T00:39:19.820Z,158459.38
2023-04-16T00:41:47.429Z,158452.72
2023-04-16T00:44:15.331Z,158436.72
2023-04-16T00:46:43.090Z,158438.06
2023-04-16T00:49:11.115Z,158423.38
2023-04-16T00:51:38.511Z,158419.44
2023-04-16T00:54:06.992Z,158434.06
2023-04-16T00:56:35.723Z,158406.09
2023-04-16T00:59:03.224Z,158366.16
2023-04-16T01:01:30.747Z,158388.81
2023-04-16T01:03:58.402Z,158410.13
2023-04-16T01:06:28.265Z,158396.81
2023-04-16T01:08:56.036Z,158384.81
2023-04-16T01:11:23.349Z,158392.78
2023-04-16T01:13:51.339Z,158376.81
2023-04-16T01:16:19.300Z,158378.16
2023-04-16T01:18:47.509Z,158384.81
2023-04-16T01:21:14.801Z,158380.78
2023-04-16T01:23:42.770Z,158391.47
2023-04-16T01:26:10.151Z,158384.81
2023-04-16T01:28:37.679Z,158376.81
2023-04-16T01:31:05.312Z,158355.53
2023-04-16T01:33:46.376Z,158340.91
2023-04-16T01:36:13.759Z,158331.53
2023-04-16T01:38:41.644Z,158342.22
2023-04-16T01:41:08.844Z,158346.19
2023-04-16T01:43:38.478Z,158331.53
2023-04-16T01:46:24.325Z,158330.22
2023-04-16T01:48:54.840Z,158336.88
2023-04-16T01:51:22.453Z,158332.91
2023-04-16T01:53:51.065Z,158339.53
2023-04-16T01:56:18.757Z,158352.84
2023-04-16T01:58:47.640Z,158358.19
2023-04-16T02:01:17.273Z,158351.50
2023-04-16T02:03:46.719Z,158322.25
2023-04-16T02:06:15.694Z,158323.56
2023-04-16T02:08:43.517Z,158298.31
2023-04-16T02:11:11.225Z,158286.31
2023-04-16T02:13:39.343Z,158306.28
2023-04-16T02:16:07.089Z,158308.94
2023-04-16T02:18:44.273Z,158318.22
2023-04-16T02:21:14.103Z,158296.94
2023-04-16T02:23:42.393Z,158315.59
2023-04-16T02:26:10.000Z,158314.25
2023-04-16T02:28:38.684Z,158320.91
2023-04-16T02:31:08.701Z,158338.19
2023-04-16T02:33:41.887Z,158346.19
2023-04-16T02:36:11.379Z,158336.88
2023-04-16T02:38:39.046Z,158323.56
2023-04-16T02:41:07.640Z,158320.91
2023-04-16T02:43:35.514Z,158312.94
2023-04-16T02:46:03.084Z,158328.91
2023-04-16T02:48:30.856Z,158324.88
2023-04-16T02:50:58.388Z,158320.91
2023-04-16T02:53:26.034Z,158311.63
2023-04-16T02:55:54.473Z,158315.59
2023-04-16T02:58:24.177Z,158303.59
2023-04-16T03:00:52.692Z,158315.59
2023-04-16T03:03:21.539Z,158318.22
2023-04-16T03:05:49.033Z,158307.59
2023-04-16T03:08:17.312Z,158314.25
2023-04-16T03:10:44.744Z,158300.94
2023-04-16T03:13:12.618Z,158307.59
2023-04-16T03:15:40.151Z,158315.59
2023-04-16T03:18:07.814Z,158326.25
2023-04-16T03:20:34.932Z,158304.97
2023-04-16T03:23:02.555Z,158324.88
2023-04-16T03:25:29.863Z,158340.91
2023-04-16T03:27:57.761Z,158328.91
2023-04-16T03:30:25.520Z,158318.22
2023-04-16T03:32:53.286Z,158323.56
2023-04-16T03:35:21.495Z,158331.53
2023-04-16T03:37:50.452Z,158343.53
2023-04-16T03:40:18.417Z,158334.25
2023-04-16T03:42:46.371Z,158347.56
2023-04-16T03:45:13.777Z,158374.13
2023-04-16T03:47:42.246Z,158378.16
2023-04-16T03:50:11.713Z,158376.81
2023-04-16T03:52:40.134Z,158380.78
2023-04-16T03:55:08.008Z,158382.16
2023-04-16T03:57:35.773Z,158374.13
2023-04-16T04:00:09.691Z,158378.16
2023-04-16T04:02:54.476Z,158386.13
2023-04-16T04:05:23.030Z,158390.16
2023-04-16T04:07:51.117Z,158390.16
2023-04-16T04:10:18.513Z,158398.13
2023-04-16T04:12:46.820Z,158402.09
2023-04-16T04:15:14.395Z,158387.44
2023-04-16T04:17:43.695Z,158387.44
2023-04-16T04:20:11.840Z,158370.16
2023-04-16T04:22:39.728Z,158398.13
2023-04-16T04:25:08.793Z,158392.78
2023-04-16T04:27:36.683Z,158403.47
2023-04-16T04:30:07.443Z,158370.16
2023-04-16T04:32:38.194Z,158400.78
2023-04-16T04:35:05.985Z,158404.78
2023-04-16T04:37:33.819Z,158412.75
2023-04-16T04:40:08.958Z,158416.72
2023-04-16T04:42:37.968Z,158411.44
2023-04-16T04:45:06.192Z,158428.72
2023-04-16T04:47:35.107Z,158431.41
2023-04-16T04:50:02.444Z,158431.41
2023-04-16T04:52:31.659Z,158434.06
2023-04-16T04:54:59.244Z,158447.38
2023-04-16T04:57:27.286Z,158447.38
2023-04-16T04:59:55.363Z,158454.03
2023-04-16T05:02:23.481Z,158455.38
2023-04-16T05:04:50.986Z,158463.34
2023-04-16T05:07:18.694Z,158460.69
2023-04-16T05:09:45.902Z,158463.34
2023-04-16T05:12:13.561Z,158450.03
2023-04-16T05:14:40.970Z,158472.66
2023-04-16T05:17:08.592Z,158490.00
2023-04-16T05:19:35.904Z,158471.31
2023-04-16T05:22:03.511Z,158497.97
2023-04-16T05:24:30.977Z,158515.31
2023-04-16T05:26:58.518Z,158508.66
2023-04-16T05:29:26.166Z,158512.63
2023-04-16T05:31:53.776Z,158544.59
2023-04-16T05:34:21.113Z,158536.63
2023-04-16T05:36:48.606Z,158557.91
2023-04-16T05:39:16.995Z,158563.22
2023-04-16T05:41:44.504Z,158571.19
2023-04-16T05:44:11.757Z,158581.88
2023-04-16T05:46:39.390Z,158559.25
2023-04-16T05:49:06.911Z,158556.53
2023-04-16T05:51:34.731Z,158521.91
2023-04-16T05:54:01.990Z,158551.25
2023-04-16T05:56:29.669Z,158536.63
2023-04-16T05:58:57.009Z,158556.53
2023-04-16T06:01:25.625Z,158543.22
2023-04-16T06:03:52.868Z,158565.91
2023-04-16T06:06:20.411Z,158572.56
2023-04-16T06:08:47.727Z,158571.19
2023-04-16T06:11:15.752Z,158579.22
2023-04-16T06:13:43.308Z,158592.50
2023-04-16T06:16:10.908Z,158604.50
2023-04-16T06:18:38.136Z,158596.50
2023-04-16T06:21:05.901Z,158613.84
2023-04-16T06:23:33.238Z,158633.81
2023-04-16T06:26:00.912Z,158659.13
2023-04-16T06:28:28.121Z,158648.44
2023-04-16T06:30:56.029Z,158651.16
2023-04-16T06:33:23.493Z,158655.13
2023-04-16T06:35:50.951Z,158656.50
2023-04-16T06:38:18.837Z,158663.16
2023-04-16T06:40:46.474Z,158619.16
2023-04-16T06:43:15.768Z,158653.78
2023-04-16T06:45:43.594Z,158663.16
2023-04-16T06:48:10.849Z,158677.81
2023-04-16T06:50:38.778Z,158655.13
2023-04-16T06:53:07.264Z,158647.13
2023-04-16T06:55:34.949Z,158669.75
2023-04-16T06:58:02.300Z,158663.16
2023-04-16T07:00:29.989Z,158648.44
2023-04-16T07:02:58.709Z,158649.81
2023-04-16T07:05:26.438Z,158636.50
2023-04-16T07:07:53.656Z,158667.13
2023-04-16T07:10:21.444Z,158661.78
2023-04-16T07:12:48.770Z,158656.50
2023-04-16T07:15:16.404Z,158648.44
2023-04-16T07:17:43.681Z,158639.13
2023-04-16T07:20:11.485Z,158636.50
2023-04-16T07:22:38.791Z,158635.19
2023-04-16T07:25:06.612Z,158688.44
2023-04-16T07:27:33.975Z,158676.44
2023-04-16T07:30:01.868Z,158683.09
2023-04-16T07:32:29.230Z,158679.13
2023-04-16T07:34:57.248Z,158697.75
2023-04-16T07:37:24.411Z,158692.44
2023-04-16T07:39:53.135Z,158715.09
2023-04-16T07:42:20.915Z,158735.06
2023-04-16T07:44:48.367Z,158720.44
2023-04-16T07:47:15.587Z,158712.44
2023-04-16T07:49:43.236Z,158696.41
2023-04-16T07:52:10.722Z,158675.09
2023-04-16T07:54:38.093Z,158691.13
2023-04-16T07:57:05.212Z,158709.75
2023-04-16T07:59:32.738Z,158699.13
2023-04-16T08:02:00.398Z,158713.75
2023-04-16T08:04:28.724Z,158735.06
2023-04-16T08:06:56.392Z,158739.03
2023-04-16T08:09:27.573Z,158728.41
2023-04-16T08:11:54.930Z,158708.41
2023-04-16T08:14:22.848Z,158723.06
2023-04-16T08:16:50.348Z,158721.75
2023-04-16T08:19:18.028Z,158731.06
2023-04-16T08:21:45.782Z,158727.09
2023-04-16T08:24:13.939Z,158723.06
2023-04-16T08:26:41.763Z,158712.44
2023-04-16T08:29:09.754Z,158735.06
2023-04-16T08:31:37.836Z,158752.38
2023-04-16T08:34:05.649Z,158775.03
2023-04-16T08:36:32.918Z,158749.72
2023-04-16T08:39:00.653Z,158757.72
2023-04-16T08:41:29.950Z,158771.06
2023-04-16T08:44:10.382Z,158775.03
2023-04-16T08:46:38.679Z,158781.75
2023-04-16T08:49:08.166Z,158819.09
2023-04-16T08:51:36.316Z,158824.38
2023-04-16T08:54:06.025Z,158827.06
2023-04-16T08:56:36.719Z,158837.72
2023-04-16T08:59:05.833Z,158872.38
2023-04-16T09:01:34.309Z,158889.72
2023-04-16T09:04:03.686Z,158911.06
2023-04-16T09:06:31.721Z,158917.72
2023-04-16T09:09:00.142Z,158919.03
2023-04-16T09:11:27.748Z,158961.72
2023-04-16T09:13:55.778Z,158977.69
2023-04-16T09:16:23.692Z,158993.72
2023-04-16T09:18:52.414Z,159000.34
2023-04-16T09:21:22.009Z,159023.06
2023-04-16T09:23:53.644Z,159016.38
2023-04-16T09:26:22.061Z,159029.72
2023-04-16T09:28:51.643Z,159057.72
2023-04-16T09:31:20.068Z,159088.38
2023-04-16T09:34:08.766Z,159104.38
2023-04-16T09:36:37.011Z,159149.75
2023-04-16T09:39:04.956Z,159129.75
2023-04-16T09:41:36.231Z,159131.06
2023-04-16T09:44:05.419Z,159139.06
2023-04-16T09:46:37.635Z,159147.06
2023-04-16T09:49:18.812Z,159168.41
2023-04-16T09:51:48.227Z,159192.44
2023-04-16T09:54:16.440Z,159191.13
2023-04-16T09:56:45.313Z,159256.47
2023-04-16T09:59:22.921Z,159223.09
2023-04-16T10:01:50.789Z,159219.13
2023-04-16T10:04:18.918Z,159188.41
2023-04-16T10:07:05.614Z,159191.13
2023-04-16T10:09:37.961Z,159204.41
2023-04-16T10:12:06.963Z,159256.47
2023-04-16T10:14:35.192Z,159259.13
2023-04-16T10:17:03.839Z,159288.53
2023-04-16T10:19:32.498Z,159301.88
2023-04-16T10:22:00.176Z,159360.63
2023-04-16T10:24:29.741Z,159347.28
2023-04-16T10:26:57.830Z,159345.94
2023-04-16T10:29:30.420Z,159356.59
2023-04-16T10:31:58.326Z,159360.63
2023-04-16T10:34:27.023Z,159360.63
2023-04-16T10:36:55.098Z,159333.94
2023-04-16T10:39:24.947Z,159380.59
2023-04-16T10:42:07.727Z,159379.28
2023-04-16T10:44:35.653Z,159361.94
2023-04-16T10:47:03.361Z,159355.28
2023-04-16T10:49:31.752Z,159353.94
2023-04-16T10:52:19.320Z,159379.28
2023-04-16T10:54:48.519Z,159336.56
2023-04-16T10:57:18.059Z,159337.91
2023-04-16T10:59:46.405Z,159389.97
2023-04-16T11:02:15.570Z,159397.97
2023-04-16T11:04:47.757Z,159405.97
2023-04-16T11:07:20.758Z,159418.00
2023-04-16T11:10:00.184Z,159418.00
2023-04-16T11:12:38.747Z,159419.34
2023-04-16T11:15:08.576Z,159488.75
2023-04-16T11:17:44.726Z,159479.38
2023-04-16T11:20:19.916Z,159492.75
2023-04-16T11:22:51.926Z,159491.41
2023-04-16T11:25:21.973Z,159480.75
2023-04-16T11:27:50.315Z,159482.09
2023-04-16T11:30:19.091Z,159555.50
2023-04-16T11:32:46.481Z,159606.25
2023-04-16T11:35:19.267Z,159669.03
2023-04-16T11:37:48.507Z,159661.00
2023-04-16T11:40:16.234Z,159673.06
2023-04-16T11:42:44.552Z,159662.34
2023-04-16T11:45:12.826Z,159628.97
2023-04-16T11:47:59.319Z,159654.34
2023-04-16T11:50:28.759Z,159627.66
2023-04-16T11:52:58.032Z,159600.94
2023-04-16T11:55:25.851Z,159592.94
2023-04-16T11:57:53.824Z,159642.34
2023-04-16T12:00:24.537Z,159635.66
2023-04-16T12:02:54.955Z,159611.59
2023-04-16T12:05:31.237Z,159590.22
2023-04-16T12:07:59.981Z,159571.56
2023-04-16T12:10:28.731Z,159556.81
2023-04-16T12:13:17.397Z,159519.47
2023-04-16T12:15:50.337Z,159520.78
2023-04-16T12:18:20.450Z,159518.13
2023-04-16T12:20:49.215Z,159451.34
2023-04-16T12:23:26.887Z,159499.41
2023-04-16T12:25:55.766Z,159524.81
2023-04-16T12:28:31.849Z,159588.91
2023-04-16T12:31:00.781Z,159586.25
2023-04-16T12:33:29.418Z,159591.56
2023-04-16T12:35:58.282Z,159586.25
2023-04-16T12:38:27.532Z,159640.97
2023-04-16T12:40:57.471Z,159662.34
2023-04-16T12:43:26.109Z,159667.69
2023-04-16T12:45:54.532Z,159685.13
2023-04-16T12:48:22.248Z,159714.50
2023-04-16T12:50:50.014Z,159770.63
2023-04-16T12:53:17.273Z,159785.31
2023-04-16T12:55:45.631Z,159822.72
2023-04-16T12:58:12.917Z,159912.28
2023-04-16T13:00:40.904Z,159935.00
2023-04-16T13:03:08.548Z,159939.00
2023-04-16T13:05:36.269Z,159897.56
2023-04-16T13:08:03.681Z,159929.63
2023-04-16T13:10:31.236Z,159882.88
2023-04-16T13:12:58.470Z,159893.53
2023-04-16T13:15:26.076Z,159886.84
2023-04-16T13:17:53.381Z,159837.41
2023-04-16T13:20:23.144Z,159790.69
2023-04-16T13:22:51.871Z,159757.25
2023-04-16T13:25:19.479Z,159719.88
2023-04-16T13:27:46.782Z,159747.94
2023-04-16T13:30:14.565Z,159781.28
2023-04-16T13:32:42.115Z,159771.94
2023-04-16T13:35:10.956Z,159809.34
2023-04-16T13:37:38.266Z,159842.78
2023-04-16T13:40:06.954Z,159844.09
2023-04-16T13:42:34.251Z,159861.50
2023-04-16T13:45:02.556Z,159898.91
2023-04-16T13:47:30.325Z,159893.53
2023-04-16T13:49:58.405Z,159905.59
2023-04-16T13:52:25.901Z,159944.31
2023-04-16T13:54:53.555Z,159969.75
2023-04-16T13:57:21.167Z,159999.16
2023-04-16T13:59:48.958Z,160035.25
2023-04-16T14:02:16.640Z,160055.34
2023-04-16T14:04:44.446Z,160103.50
2023-04-16T14:07:12.065Z,160144.97
2023-04-16T14:09:39.582Z,160134.22
2023-04-16T14:12:07.212Z,160151.66
2023-04-16T14:14:35.399Z,160116.88
2023-04-16T14:17:03.602Z,160078.06
2023-04-16T14:19:31.509Z,160024.56
2023-04-16T14:21:58.898Z,160011.19
2023-04-16T14:24:26.879Z,159955.03
2023-04-16T14:26:54.512Z,159909.56
2023-04-16T14:29:22.272Z,159901.56
2023-04-16T14:31:50.516Z,159901.56
2023-04-16T14:34:18.223Z,159882.88
2023-04-16T14:36:45.560Z,159872.16
2023-04-16T14:39:13.314Z,159865.47
2023-04-16T14:41:40.667Z,159852.13
2023-04-16T14:44:08.485Z,159828.06
2023-04-16T14:46:36.350Z,159818.75
2023-04-16T14:49:05.049Z,159804.03
2023-04-16T14:51:32.716Z,159804.03
2023-04-16T14:54:00.462Z,159797.34
2023-04-16T14:56:27.773Z,159785.31
2023-04-16T14:58:55.325Z,159836.09
2023-04-16T15:01:22.748Z,159862.81
2023-04-16T15:03:50.879Z,159880.19
2023-04-16T15:06:19.038Z,159916.25
2023-04-16T15:08:46.673Z,159941.66
2023-04-16T15:11:14.296Z,159932.34
2023-04-16T15:13:42.163Z,159921.63
2023-04-16T15:16:09.614Z,159925.66
2023-04-16T15:18:37.349Z,159920.28
2023-04-16T15:21:04.944Z,159916.25
2023-04-16T15:23:32.794Z,159926.97
2023-04-16T15:26:00.133Z,159870.84
2023-04-16T15:28:28.287Z,159860.13
2023-04-16T15:30:56.071Z,159844.09
2023-04-16T15:33:24.043Z,159873.50
2023-04-16T15:35:51.795Z,159890.91
2023-04-16T15:38:21.566Z,159849.47
2023-04-16T15:40:49.021Z,159846.81
2023-04-16T15:43:16.908Z,159832.06
2023-04-16T15:45:44.340Z,159836.09
2023-04-16T15:48:12.056Z,159785.31
2023-04-16T15:50:39.826Z,159739.88
2023-04-16T15:53:07.408Z,159729.22
2023-04-16T15:55:35.877Z,159742.56
2023-04-16T15:58:03.646Z,159699.81
2023-04-16T16:00:31.279Z,159678.41
2023-04-16T16:02:58.925Z,159675.69
2023-04-16T16:05:26.458Z,159647.66
2023-04-16T16:07:54.197Z,159632.97
2023-04-16T16:10:21.693Z,159612.91
2023-04-16T16:12:49.611Z,159578.19
2023-04-16T16:15:17.613Z,159566.22
2023-04-16T16:17:45.347Z,159564.88
2023-04-16T16:20:13.103Z,159570.19
2023-04-16T16:22:42.071Z,159578.19
2023-04-16T16:25:10.488Z,159588.91
2023-04-16T16:27:38.166Z,159602.25
2023-04-16T16:30:07.474Z,159599.63
2023-04-16T16:32:35.276Z,159600.94
2023-04-16T16:35:02.692Z,159598.22
2023-04-16T16:37:30.510Z,159560.84
2023-04-16T16:39:57.849Z,159567.53
2023-04-16T16:42:26.712Z,159560.84
2023-04-16T16:44:56.022Z,159542.16
2023-04-16T16:47:25.424Z,159534.13
2023-04-16T16:49:54.884Z,159532.81
2023-04-16T16:52:24.143Z,159514.09
2023-04-16T16:54:53.255Z,159502.13
2023-04-16T16:57:20.814Z,159479.38
2023-04-16T16:59:48.664Z,159476.72
2023-04-16T17:02:17.149Z,159464.72
2023-04-16T17:04:45.151Z,159432.69
2023-04-16T17:07:12.916Z,159412.66
2023-04-16T17:09:40.629Z,159401.97
2023-04-16T17:12:08.399Z,159384.63
2023-04-16T17:14:36.113Z,159373.97
2023-04-16T17:17:04.126Z,159361.94
2023-04-16T17:19:31.495Z,159355.28
2023-04-16T17:22:00.297Z,159325.91
2023-04-16T17:24:27.548Z,159325.91
2023-04-16T17:26:55.261Z,159301.88
2023-04-16T17:29:26.345Z,159287.19
2023-04-16T17:31:54.224Z,159285.88
2023-04-16T17:34:22.116Z,159275.16
2023-04-16T17:36:52.864Z,159264.47
2023-04-16T17:39:21.200Z,159227.13
2023-04-16T17:41:54.401Z,159232.44
2023-04-16T17:44:23.303Z,159221.78
2023-04-16T17:46:51.558Z,159205.78
2023-04-16T17:49:19.326Z,159195.09
2023-04-16T17:51:47.029Z,159181.75
2023-04-16T17:54:14.792Z,159172.41
2023-04-16T17:56:42.748Z,159155.06
2023-04-16T17:59:10.244Z,159140.38
2023-04-16T18:01:38.962Z,159129.75
2023-04-16T18:04:07.214Z,159105.69
2023-04-16T18:06:35.071Z,159104.38
2023-04-16T18:09:05.047Z,159099.03
2023-04-16T18:11:32.842Z,159097.69
2023-04-16T18:14:01.024Z,159088.38
2023-04-16T18:16:29.005Z,159079.06
2023-04-16T18:18:57.019Z,159064.41
2023-04-16T18:21:25.080Z,159061.69
2023-04-16T18:23:52.479Z,159049.69
2023-04-16T18:26:22.194Z,159049.69
2023-04-16T18:28:51.510Z,159023.06
2023-04-16T18:31:21.352Z,159028.34
2023-04-16T18:33:57.606Z,159016.38
2023-04-16T18:36:27.101Z,158995.06
2023-04-16T18:39:15.766Z,158985.69
2023-04-16T18:41:47.996Z,158963.03
2023-04-16T18:44:17.883Z,158957.69
2023-04-16T18:46:46.345Z,158940.38
2023-04-16T18:49:14.108Z,158909.72
2023-04-16T18:51:42.547Z,158907.03
2023-04-16T18:54:10.310Z,158901.69
2023-04-16T18:56:38.019Z,158884.38
2023-04-16T18:59:05.632Z,158871.06
2023-04-16T19:01:33.710Z,158861.75
2023-04-16T19:04:01.806Z,158853.75
2023-04-16T19:06:30.383Z,158831.03
2023-04-16T19:08:57.770Z,158816.38
2023-04-16T19:11:25.718Z,158803.06
2023-04-16T19:13:53.089Z,158799.09
2023-04-16T19:16:21.116Z,158776.41
2023-04-16T19:18:48.716Z,158769.72
2023-04-16T19:21:16.512Z,158759.03
2023-04-16T19:23:43.822Z,158749.72
2023-04-16T19:26:11.835Z,158731.06
2023-04-16T19:28:39.851Z,158715.09
2023-04-16T19:31:07.783Z,158721.75
2023-04-16T19:33:35.908Z,158720.44
2023-04-16T19:36:03.918Z,158707.09
2023-04-16T19:38:34.026Z,158695.09
2023-04-16T19:41:01.878Z,158676.44
2023-04-16T19:43:31.133Z,158665.78
2023-04-16T19:45:59.346Z,158648.44
2023-04-16T19:48:27.319Z,158633.81
2023-04-16T19:50:55.063Z,158627.13
2023-04-16T19:53:22.887Z,158604.50
2023-04-16T19:55:50.711Z,158583.19
2023-04-16T19:58:17.994Z,158579.22
2023-04-16T20:00:45.728Z,158575.22
2023-04-16T20:03:13.357Z,158559.25
2023-04-16T20:05:41.126Z,158549.88
2023-04-16T20:08:08.897Z,158539.25
2023-04-16T20:10:37.037Z,158532.59
2023-04-16T20:13:06.698Z,158512.63
2023-04-16T20:15:34.249Z,158487.34
2023-04-16T20:18:01.831Z,158466.00
2023-04-16T20:20:29.843Z,158475.34
2023-04-16T20:22:57.413Z,158471.31
2023-04-16T20:25:26.452Z,158466.00
2023-04-16T20:27:54.634Z,158450.03
2023-04-16T20:30:24.847Z,158443.38
2023-04-16T20:32:52.189Z,158443.38
2023-04-16T20:35:19.895Z,158435.38
2023-04-16T20:37:47.414Z,158438.06
2023-04-16T20:40:16.593Z,158431.41
2023-04-16T20:42:46.475Z,158430.03
2023-04-16T20:45:14.466Z,158438.06
2023-04-16T20:47:43.741Z,158439.41
2023-04-16T20:50:12.407Z,158455.38
2023-04-16T20:52:39.749Z,158454.03
2023-04-16T20:55:08.270Z,158455.38
2023-04-16T20:57:35.624Z,158438.06
2023-04-16T21:00:06.091Z,158455.38
2023-04-16T21:02:33.871Z,158431.41
2023-04-16T21:05:02.106Z,158440.72
2023-04-16T21:07:29.574Z,158443.38
2023-04-16T21:09:57.514Z,158454.03
2023-04-16T21:12:24.857Z,158455.38
2023-04-16T21:14:52.681Z,158463.34
2023-04-16T21:17:20.077Z,158468.69
2023-04-16T21:19:47.796Z,158462.03
2023-04-16T21:22:15.587Z,158474.03
2023-04-16T21:24:43.228Z,158484.66
2023-04-16T21:27:10.639Z,158493.94
2023-04-16T21:29:38.330Z,158499.28
2023-04-16T21:32:05.985Z,158502.00
2023-04-16T21:34:33.789Z,158515.31
2023-04-16T21:37:01.157Z,158520.59
2023-04-16T21:39:31.138Z,158524.63
2023-04-16T21:41:58.378Z,158537.94
2023-04-16T21:44:26.049Z,158547.25
2023-04-16T21:46:53.625Z,158536.63
2023-04-16T21:49:21.535Z,158552.59
2023-04-16T21:51:50.416Z,158565.91
2023-04-16T21:54:18.891Z,158571.19
2023-04-16T21:56:46.440Z,158576.53
2023-04-16T21:59:14.131Z,158593.88
2023-04-16T22:01:41.789Z,158597.84
2023-04-16T22:04:10.182Z,158596.50
2023-04-16T22:06:37.771Z,158599.16
2023-04-16T22:09:05.608Z,158615.19
2023-04-16T22:11:32.838Z,158620.47
2023-04-16T22:14:00.566Z,158616.50
2023-04-16T22:16:27.908Z,158620.47
2023-04-16T22:18:56.824Z,158623.16
2023-04-16T22:21:25.294Z,158616.50
2023-04-16T22:23:53.035Z,158623.16
2023-04-16T22:26:20.782Z,158625.81
2023-04-16T22:28:48.757Z,158620.47
2023-04-16T22:31:16.148Z,158625.81
2023-04-16T22:33:43.756Z,158636.50
2023-04-16T22:36:11.238Z,158619.16
2023-04-16T22:38:39.108Z,158613.84
2023-04-16T22:41:06.680Z,158588.53
2023-04-16T22:43:37.556Z,158581.88
2023-04-16T22:46:06.829Z,158556.53
2023-04-16T22:48:36.581Z,158553.91
2023-04-16T22:51:07.794Z,158544.59
2023-04-16T22:53:36.218Z,158521.91
2023-04-16T22:56:04.327Z,158515.31
2023-04-16T22:58:32.005Z,158531.28
2023-04-16T23:00:59.781Z,158511.28
2023-04-16T23:03:27.901Z,158529.94
2023-04-16T23:05:55.371Z,158525.94
2023-04-16T23:08:22.911Z,158507.28
2023-04-16T23:10:50.653Z,158511.28
2023-04-16T23:13:18.456Z,158492.63
2023-04-16T23:15:47.549Z,158499.28
2023-04-16T23:18:15.554Z,158507.28
2023-04-16T23:20:43.007Z,158519.28
2023-04-16T23:23:10.750Z,158515.31
2023-04-16T23:25:38.112Z,158512.63
2023-04-16T23:28:05.780Z,158520.59
2023-04-16T23:30:33.184Z,158528.56
2023-04-16T23:33:00.759Z,158504.63
2023-04-16T23:35:28.110Z,158496.66
2023-04-16T23:37:56.081Z,158502.00
2023-04-16T23:40:23.313Z,158531.28
2023-04-16T23:42:51.290Z,158512.63
2023-04-16T23:45:18.669Z,158531.28
2023-04-16T23:47:47.170Z,158519.28
2023-04-16T23:50:14.710Z,158520.59
2023-04-16T23:52:42.386Z,158515.31
2023-04-16T23:55:09.857Z,158515.31
2023-04-16T23:57:37.845Z,158520.59
